sensor_id;sensor_type;location;lat;lon;timestamp;P1;durP1;ratioP1;P2;durP2;ratioP2
20443;SDS011;10381;53.730;10.010;2022-11-23T00:01:24;222.43;;;187.10;;
20443;SDS011;10381;53.730;10.010;2022-11-23T00:05:27;229.55;;;197.70;;
20443;SDS011;10381;53.730;10.010;2022-11-23T00:09:28;230.38;;;197.68;;
20443;SDS011;10381;53.730;10.010;2022-11-23T00:13:28;239.48;;;199.65;;
20443;SDS011;10381;53.730;10.010;2022-11-23T00:17:29;231.50;;;194.63;;
20443;SDS011;10381;53.730;10.010;2022-11-23T00:21:29;225.77;;;200.80;;
20443;SDS011;10381;53.730;10.010;2022-11-23T00:25:31;236.10;;;201.52;;
20443;SDS011;10381;53.730;10.010;2022-11-23T00:29:33;243.80;;;207.43;;
20443;SDS011;10381;53.730;10.010;2022-11-23T00:33:33;244.97;;;209.50;;
20443;SDS011;10381;53.730;10.010;2022-11-23T00:37:34;236.68;;;205.13;;
20443;SDS011;10381;53.730;10.010;2022-11-23T00:41:34;257.37;;;206.67;;
20443;SDS011;10381;53.730;10.010;2022-11-23T00:45:35;237.75;;;203.85;;
20443;SDS011;10381;53.730;10.010;2022-11-23T00:49:35;263.27;;;207.80;;
20443;SDS011;10381;53.730;10.010;2022-11-23T00:53:36;245.03;;;201.63;;
20443;SDS011;10381;53.730;10.010;2022-11-23T00:57:36;251.70;;;204.18;;
20443;SDS011;10381;53.730;10.010;2022-11-23T01:01:37;239.07;;;199.98;;
20443;SDS011;10381;53.730;10.010;2022-11-23T01:05:37;243.10;;;206.20;;
20443;SDS011;10381;53.730;10.010;2022-11-23T01:09:38;241.23;;;211.43;;
20443;SDS011;10381;53.730;10.010;2022-11-23T01:13:40;245.05;;;206.32;;
20443;SDS011;10381;53.730;10.010;2022-11-23T01:17:41;225.88;;;200.60;;
20443;SDS011;10381;53.730;10.010;2022-11-23T01:21:42;259.23;;;213.43;;
20443;SDS011;10381;53.730;10.010;2022-11-23T01:25:43;244.77;;;209.98;;
20443;SDS011;10381;53.730;10.010;2022-11-23T01:29:44;232.52;;;201.20;;
20443;SDS011;10381;53.730;10.010;2022-11-23T01:33:44;258.95;;;210.15;;
20443;SDS011;10381;53.730;10.010;2022-11-23T01:37:45;247.77;;;205.45;;
20443;SDS011;10381;53.730;10.010;2022-11-23T01:41:45;233.77;;;204.30;;
20443;SDS011;10381;53.730;10.010;2022-11-23T01:49:52;239.48;;;195.45;;
20443;SDS011;10381;53.730;10.010;2022-11-23T01:53:53;236.15;;;191.65;;
20443;SDS011;10381;53.730;10.010;2022-11-23T01:57:56;230.23;;;196.00;;
20443;SDS011;10381;53.730;10.010;2022-11-23T02:01:56;235.80;;;198.60;;
20443;SDS011;10381;53.730;10.010;2022-11-23T02:05:58;226.90;;;200.63;;
20443;SDS011;10381;53.730;10.010;2022-11-23T02:10:02;232.15;;;193.50;;
20443;SDS011;10381;53.730;10.010;2022-11-23T02:14:02;246.05;;;197.50;;
20443;SDS011;10381;53.730;10.010;2022-11-23T02:18:04;237.13;;;202.23;;
20443;SDS011;10381;53.730;10.010;2022-11-23T02:22:11;236.05;;;197.40;;
20443;SDS011;10381;53.730;10.010;2022-11-23T02:30:37;243.82;;;201.93;;
20443;SDS011;10381;53.730;10.010;2022-11-23T02:34:38;235.15;;;194.75;;
20443;SDS011;10381;53.730;10.010;2022-11-23T02:38:39;223.70;;;193.63;;
20443;SDS011;10381;53.730;10.010;2022-11-23T02:42:39;241.33;;;206.87;;
20443;SDS011;10381;53.730;10.010;2022-11-23T02:46:39;242.48;;;204.15;;
20443;SDS011;10381;53.730;10.010;2022-11-23T02:50:40;246.18;;;208.50;;
20443;SDS011;10381;53.730;10.010;2022-11-23T02:54:40;248.40;;;220.50;;
20443;SDS011;10381;53.730;10.010;2022-11-23T02:58:41;288.30;;;245.93;;
20443;SDS011;10381;53.730;10.010;2022-11-23T03:02:41;311.30;;;273.23;;
20443;SDS011;10381;53.730;10.010;2022-11-23T03:06:41;341.90;;;293.38;;
20443;SDS011;10381;53.730;10.010;2022-11-23T03:10:42;333.25;;;290.52;;
20443;SDS011;10381;53.730;10.010;2022-11-23T03:14:42;337.80;;;296.93;;
20443;SDS011;10381;53.730;10.010;2022-11-23T03:18:42;343.13;;;304.45;;
20443;SDS011;10381;53.730;10.010;2022-11-23T03:22:43;555.67;;;498.90;;
20443;SDS011;10381;53.730;10.010;2022-11-23T03:26:43;774.47;;;700.97;;
20443;SDS011;10381;53.730;10.010;2022-11-23T03:30:43;811.53;;;734.07;;
20443;SDS011;10381;53.730;10.010;2022-11-23T03:34:44;829.03;;;750.47;;
20443;SDS011;10381;53.730;10.010;2022-11-23T03:38:44;824.27;;;745.43;;
20443;SDS011;10381;53.730;10.010;2022-11-23T03:42:44;839.53;;;758.70;;
20443;SDS011;10381;53.730;10.010;2022-11-23T03:46:44;855.47;;;773.60;;
20443;SDS011;10381;53.730;10.010;2022-11-23T03:50:45;857.87;;;776.13;;
20443;SDS011;10381;53.730;10.010;2022-11-23T03:54:45;863.73;;;780.00;;
20443;SDS011;10381;53.730;10.010;2022-11-23T03:58:46;867.53;;;783.63;;
20443;SDS011;10381;53.730;10.010;2022-11-23T04:02:46;861.93;;;779.70;;
20443;SDS011;10381;53.730;10.010;2022-11-23T04:06:46;880.83;;;796.27;;
20443;SDS011;10381;53.730;10.010;2022-11-23T04:10:47;862.33;;;779.37;;
20443;SDS011;10381;53.730;10.010;2022-11-23T04:14:47;875.40;;;791.77;;
20443;SDS011;10381;53.730;10.010;2022-11-23T04:18:47;871.03;;;786.77;;
20443;SDS011;10381;53.730;10.010;2022-11-23T04:22:47;862.20;;;778.87;;
20443;SDS011;10381;53.730;10.010;2022-11-23T04:26:48;876.17;;;793.13;;
20443;SDS011;10381;53.730;10.010;2022-11-23T04:30:48;882.23;;;798.40;;
20443;SDS011;10381;53.730;10.010;2022-11-23T04:34:48;877.25;;;793.97;;
20443;SDS011;10381;53.730;10.010;2022-11-23T04:38:49;879.47;;;794.63;;
20443;SDS011;10381;53.730;10.010;2022-11-23T04:42:49;878.50;;;794.60;;
20443;SDS011;10381;53.730;10.010;2022-11-23T04:46:49;872.73;;;788.57;;
20443;SDS011;10381;53.730;10.010;2022-11-23T04:50:50;887.27;;;802.03;;
20443;SDS011;10381;53.730;10.010;2022-11-23T04:54:50;892.80;;;806.40;;
20443;SDS011;10381;53.730;10.010;2022-11-23T04:58:50;881.33;;;795.90;;
20443;SDS011;10381;53.730;10.010;2022-11-23T05:02:50;874.13;;;790.45;;
20443;SDS011;10381;53.730;10.010;2022-11-23T05:06:51;884.58;;;797.85;;
20443;SDS011;10381;53.730;10.010;2022-11-23T05:10:51;878.38;;;792.15;;
20443;SDS011;10381;53.730;10.010;2022-11-23T05:14:51;878.20;;;791.23;;
20443;SDS011;10381;53.730;10.010;2022-11-23T05:18:52;853.30;;;769.07;;
20443;SDS011;10381;53.730;10.010;2022-11-23T05:22:52;854.47;;;770.50;;
20443;SDS011;10381;53.730;10.010;2022-11-23T05:26:52;840.53;;;757.20;;
20443;SDS011;10381;53.730;10.010;2022-11-23T05:30:52;867.17;;;782.07;;
20443;SDS011;10381;53.730;10.010;2022-11-23T05:34:53;859.28;;;774.15;;
20443;SDS011;10381;53.730;10.010;2022-11-23T05:38:53;862.10;;;777.47;;
20443;SDS011;10381;53.730;10.010;2022-11-23T05:42:57;866.53;;;780.43;;
20443;SDS011;10381;53.730;10.010;2022-11-23T05:46:58;865.17;;;780.28;;
20443;SDS011;10381;53.730;10.010;2022-11-23T05:50:58;868.08;;;782.25;;
20443;SDS011;10381;53.730;10.010;2022-11-23T05:54:58;872.60;;;785.57;;
20443;SDS011;10381;53.730;10.010;2022-11-23T05:58:59;881.57;;;793.00;;
20443;SDS011;10381;53.730;10.010;2022-11-23T06:02:59;895.57;;;804.87;;
20443;SDS011;10381;53.730;10.010;2022-11-23T06:07:00;902.97;;;808.85;;
20443;SDS011;10381;53.730;10.010;2022-11-23T06:11:01;912.20;;;816.90;;
20443;SDS011;10381;53.730;10.010;2022-11-23T06:15:01;920.83;;;824.85;;
20443;SDS011;10381;53.730;10.010;2022-11-23T06:19:01;905.40;;;809.08;;
20443;SDS011;10381;53.730;10.010;2022-11-23T06:23:02;902.80;;;808.07;;
20443;SDS011;10381;53.730;10.010;2022-11-23T06:27:02;904.97;;;809.80;;
20443;SDS011;10381;53.730;10.010;2022-11-23T06:31:03;899.63;;;804.90;;
20443;SDS011;10381;53.730;10.010;2022-11-23T06:35:05;895.90;;;801.63;;
20443;SDS011;10381;53.730;10.010;2022-11-23T06:39:06;889.65;;;796.30;;
20443;SDS011;10381;53.730;10.010;2022-11-23T06:43:06;887.83;;;794.00;;
20443;SDS011;10381;53.730;10.010;2022-11-23T06:47:07;901.83;;;807.75;;
20443;SDS011;10381;53.730;10.010;2022-11-23T06:51:08;897.28;;;803.13;;
20443;SDS011;10381;53.730;10.010;2022-11-23T06:55:08;894.60;;;801.77;;
20443;SDS011;10381;53.730;10.010;2022-11-23T06:59:08;889.53;;;796.87;;
20443;SDS011;10381;53.730;10.010;2022-11-23T07:03:19;880.75;;;788.90;;
20443;SDS011;10381;53.730;10.010;2022-11-23T07:07:23;883.67;;;792.33;;
20443;SDS011;10381;53.730;10.010;2022-11-23T07:11:23;872.63;;;782.73;;
20443;SDS011;10381;53.730;10.010;2022-11-23T07:15:24;872.67;;;782.03;;
20443;SDS011;10381;53.730;10.010;2022-11-23T07:19:24;856.10;;;770.17;;
20443;SDS011;10381;53.730;10.010;2022-11-23T07:23:24;865.78;;;776.95;;
20443;SDS011;10381;53.730;10.010;2022-11-23T07:27:25;864.20;;;776.08;;
20443;SDS011;10381;53.730;10.010;2022-11-23T07:31:25;862.00;;;773.77;;
20443;SDS011;10381;53.730;10.010;2022-11-23T07:35:26;857.93;;;770.30;;
20443;SDS011;10381;53.730;10.010;2022-11-23T07:39:27;849.97;;;764.50;;
20443;SDS011;10381;53.730;10.010;2022-11-23T07:43:27;856.13;;;767.93;;
20443;SDS011;10381;53.730;10.010;2022-11-23T07:47:27;848.23;;;762.57;;
20443;SDS011;10381;53.730;10.010;2022-11-23T07:51:28;863.25;;;775.63;;
20443;SDS011;10381;53.730;10.010;2022-11-23T07:55:29;843.20;;;758.58;;
20443;SDS011;10381;53.730;10.010;2022-11-23T07:59:30;851.83;;;766.47;;
20443;SDS011;10381;53.730;10.010;2022-11-23T08:03:30;861.30;;;775.25;;
20443;SDS011;10381;53.730;10.010;2022-11-23T08:07:31;855.17;;;769.97;;
20443;SDS011;10381;53.730;10.010;2022-11-23T08:11:31;867.33;;;780.03;;
20443;SDS011;10381;53.730;10.010;2022-11-23T08:15:31;861.60;;;776.07;;
20443;SDS011;10381;53.730;10.010;2022-11-23T08:19:32;861.95;;;776.30;;
20443;SDS011;10381;53.730;10.010;2022-11-23T08:23:32;854.67;;;771.33;;
20443;SDS011;10381;53.730;10.010;2022-11-23T08:27:33;851.88;;;768.92;;
20443;SDS011;10381;53.730;10.010;2022-11-23T08:31:33;878.27;;;791.77;;
20443;SDS011;10381;53.730;10.010;2022-11-23T08:35:34;882.70;;;796.97;;
20443;SDS011;10381;53.730;10.010;2022-11-23T08:39:36;885.20;;;798.50;;
20443;SDS011;10381;53.730;10.010;2022-11-23T08:43:36;891.13;;;805.20;;
20443;SDS011;10381;53.730;10.010;2022-11-23T08:47:36;893.83;;;807.20;;
20443;SDS011;10381;53.730;10.010;2022-11-23T08:51:37;912.65;;;823.42;;
20443;SDS011;10381;53.730;10.010;2022-11-23T08:55:37;915.20;;;824.13;;
20443;SDS011;10381;53.730;10.010;2022-11-23T08:59:37;923.43;;;830.93;;
20443;SDS011;10381;53.730;10.010;2022-11-23T09:03:38;933.37;;;839.90;;
20443;SDS011;10381;53.730;10.010;2022-11-23T09:07:38;922.42;;;831.03;;
20443;SDS011;10381;53.730;10.010;2022-11-23T09:11:38;928.58;;;836.60;;
20443;SDS011;10381;53.730;10.010;2022-11-23T09:15:39;924.17;;;833.47;;
20443;SDS011;10381;53.730;10.010;2022-11-23T09:19:39;912.30;;;824.13;;
20443;SDS011;10381;53.730;10.010;2022-11-23T09:23:39;912.10;;;823.97;;
20443;SDS011;10381;53.730;10.010;2022-11-23T09:27:40;895.67;;;810.60;;
20443;SDS011;10381;53.730;10.010;2022-11-23T09:31:40;873.07;;;789.67;;
20443;SDS011;10381;53.730;10.010;2022-11-23T09:35:40;839.73;;;761.17;;
20443;SDS011;10381;53.730;10.010;2022-11-23T09:39:41;809.78;;;734.53;;
20443;SDS011;10381;53.730;10.010;2022-11-23T09:43:49;760.55;;;690.85;;
20443;SDS011;10381;53.730;10.010;2022-11-23T09:48:04;717.00;;;650.95;;
20443;SDS011;10381;53.730;10.010;2022-11-23T09:52:16;642.58;;;582.55;;
20443;SDS011;10381;53.730;10.010;2022-11-23T09:56:24;566.65;;;512.80;;
20443;SDS011;10381;53.730;10.010;2022-11-23T10:00:27;505.75;;;456.70;;
20443;SDS011;10381;53.730;10.010;2022-11-23T10:04:35;451.02;;;408.58;;
20443;SDS011;10381;53.730;10.010;2022-11-23T10:21:59;349.27;;;318.30;;
20443;SDS011;10381;53.730;10.010;2022-11-23T10:26:09;308.73;;;281.73;;
20443;SDS011;10381;53.730;10.010;2022-11-23T10:30:15;304.38;;;278.40;;
20443;SDS011;10381;53.730;10.010;2022-11-23T10:34:20;288.58;;;262.52;;
20443;SDS011;10381;53.730;10.010;2022-11-23T10:38:26;288.40;;;262.08;;
20443;SDS011;10381;53.730;10.010;2022-11-23T10:42:29;273.25;;;248.43;;
20443;SDS011;10381;53.730;10.010;2022-11-23T10:50:33;243.50;;;222.73;;
20443;SDS011;10381;53.730;10.010;2022-11-23T10:58:46;177.63;;;161.98;;
20443;SDS011;10381;53.730;10.010;2022-11-23T11:02:49;151.77;;;138.98;;
20443;SDS011;10381;53.730;10.010;2022-11-23T11:07:08;151.27;;;138.20;;
20443;SDS011;10381;53.730;10.010;2022-11-23T11:11:23;142.95;;;131.02;;
20443;SDS011;10381;53.730;10.010;2022-11-23T11:15:24;144.75;;;131.55;;
20443;SDS011;10381;53.730;10.010;2022-11-23T11:19:32;137.80;;;125.05;;
20443;SDS011;10381;53.730;10.010;2022-11-23T11:23:34;137.05;;;125.05;;
20443;SDS011;10381;53.730;10.010;2022-11-23T11:27:40;136.82;;;125.22;;
20443;SDS011;10381;53.730;10.010;2022-11-23T11:31:58;128.95;;;117.18;;
20443;SDS011;10381;53.730;10.010;2022-11-23T11:36:05;113.75;;;103.35;;
20443;SDS011;10381;53.730;10.010;2022-11-23T11:44:34;110.60;;;100.60;;
20443;SDS011;10381;53.730;10.010;2022-11-23T11:48:42;105.47;;;96.00;;
20443;SDS011;10381;53.730;10.010;2022-11-23T11:52:45;99.00;;;89.68;;
20443;SDS011;10381;53.730;10.010;2022-11-23T11:56:50;88.10;;;80.40;;
20443;SDS011;10381;53.730;10.010;2022-11-23T12:01:07;92.65;;;83.93;;
20443;SDS011;10381;53.730;10.010;2022-11-23T12:05:35;95.25;;;86.82;;
20443;SDS011;10381;53.730;10.010;2022-11-23T12:09:42;99.13;;;90.25;;
20443;SDS011;10381;53.730;10.010;2022-11-23T12:13:52;115.35;;;105.10;;
20443;SDS011;10381;53.730;10.010;2022-11-23T12:30:37;90.65;;;82.78;;
20443;SDS011;10381;53.730;10.010;2022-11-23T12:34:54;107.13;;;97.97;;
20443;SDS011;10381;53.730;10.010;2022-11-23T12:39:03;125.13;;;113.93;;
20443;SDS011;10381;53.730;10.010;2022-11-23T12:43:27;156.70;;;142.05;;
20443;SDS011;10381;53.730;10.010;2022-11-23T13:00:10;127.75;;;116.60;;
20443;SDS011;10381;53.730;10.010;2022-11-23T13:04:22;112.03;;;101.82;;
20443;SDS011;10381;53.730;10.010;2022-11-23T13:08:41;109.93;;;100.63;;
20443;SDS011;10381;53.730;10.010;2022-11-23T13:13:13;125.00;;;113.50;;
20443;SDS011;10381;53.730;10.010;2022-11-23T13:21:43;132.93;;;121.15;;
20443;SDS011;10381;53.730;10.010;2022-11-23T13:34:44;129.27;;;117.68;;
20443;SDS011;10381;53.730;10.010;2022-11-23T13:38:45;134.43;;;122.28;;
20443;SDS011;10381;53.730;10.010;2022-11-23T13:42:46;134.27;;;121.95;;
20443;SDS011;10381;53.730;10.010;2022-11-23T13:47:03;120.30;;;109.30;;
20443;SDS011;10381;53.730;10.010;2022-11-23T13:51:06;124.47;;;113.25;;
20443;SDS011;10381;53.730;10.010;2022-11-23T14:07:43;134.35;;;122.80;;
20443;SDS011;10381;53.730;10.010;2022-11-23T14:11:53;131.60;;;119.68;;
20443;SDS011;10381;53.730;10.010;2022-11-23T14:16:00;131.10;;;119.70;;
20443;SDS011;10381;53.730;10.010;2022-11-23T14:28:38;144.82;;;131.55;;
20443;SDS011;10381;53.730;10.010;2022-11-23T14:32:55;148.40;;;134.50;;
20443;SDS011;10381;53.730;10.010;2022-11-23T14:41:40;158.35;;;143.07;;
20443;SDS011;10381;53.730;10.010;2022-11-23T14:45:41;160.93;;;145.98;;
20443;SDS011;10381;53.730;10.010;2022-11-23T14:49:48;167.50;;;151.85;;
20443;SDS011;10381;53.730;10.010;2022-11-23T14:53:53;179.65;;;162.68;;
20443;SDS011;10381;53.730;10.010;2022-11-23T14:57:57;173.77;;;157.50;;
20443;SDS011;10381;53.730;10.010;2022-11-23T15:02:01;189.15;;;171.40;;
20443;SDS011;10381;53.730;10.010;2022-11-23T15:06:24;184.65;;;167.43;;
20443;SDS011;10381;53.730;10.010;2022-11-23T15:10:41;188.40;;;169.98;;
20443;SDS011;10381;53.730;10.010;2022-11-23T15:14:42;206.63;;;187.32;;
20443;SDS011;10381;53.730;10.010;2022-11-23T15:18:43;199.85;;;179.15;;
20443;SDS011;10381;53.730;10.010;2022-11-23T15:22:43;194.30;;;174.88;;
20443;SDS011;10381;53.730;10.010;2022-11-23T15:26:44;191.25;;;172.80;;
20443;SDS011;10381;53.730;10.010;2022-11-23T15:30:44;203.87;;;183.50;;
20443;SDS011;10381;53.730;10.010;2022-11-23T15:34:44;203.80;;;183.33;;
20443;SDS011;10381;53.730;10.010;2022-11-23T15:38:46;223.05;;;202.13;;
20443;SDS011;10381;53.730;10.010;2022-11-23T15:42:47;208.55;;;188.15;;
20443;SDS011;10381;53.730;10.010;2022-11-23T15:46:51;215.68;;;194.60;;
20443;SDS011;10381;53.730;10.010;2022-11-23T15:50:55;213.85;;;192.73;;
20443;SDS011;10381;53.730;10.010;2022-11-23T15:55:03;217.65;;;196.25;;
20443;SDS011;10381;53.730;10.010;2022-11-23T15:59:21;204.88;;;184.32;;
20443;SDS011;10381;53.730;10.010;2022-11-23T16:03:28;211.93;;;190.35;;
20443;SDS011;10381;53.730;10.010;2022-11-23T16:07:32;218.75;;;196.77;;
20443;SDS011;10381;53.730;10.010;2022-11-23T16:11:33;217.90;;;195.27;;
20443;SDS011;10381;53.730;10.010;2022-11-23T16:19:52;214.77;;;192.52;;
20443;SDS011;10381;53.730;10.010;2022-11-23T16:23:55;211.45;;;189.65;;
20443;SDS011;10381;53.730;10.010;2022-11-23T16:28:03;213.60;;;191.13;;
20443;SDS011;10381;53.730;10.010;2022-11-23T16:32:18;203.30;;;181.38;;
20443;SDS011;10381;53.730;10.010;2022-11-23T16:36:21;210.32;;;187.82;;
20443;SDS011;10381;53.730;10.010;2022-11-23T16:40:21;204.27;;;182.60;;
20443;SDS011;10381;53.730;10.010;2022-11-23T16:44:22;205.60;;;183.57;;
20443;SDS011;10381;53.730;10.010;2022-11-23T16:52:25;197.80;;;176.80;;
20443;SDS011;10381;53.730;10.010;2022-11-23T16:56:25;208.27;;;186.63;;
20443;SDS011;10381;53.730;10.010;2022-11-23T17:00:27;197.75;;;176.55;;
20443;SDS011;10381;53.730;10.010;2022-11-23T17:04:27;202.00;;;180.63;;
20443;SDS011;10381;53.730;10.010;2022-11-23T17:08:28;201.90;;;180.93;;
20443;SDS011;10381;53.730;10.010;2022-11-23T17:12:28;192.77;;;172.57;;
20443;SDS011;10381;53.730;10.010;2022-11-23T17:16:28;195.35;;;174.18;;
20443;SDS011;10381;53.730;10.010;2022-11-23T17:20:29;187.60;;;167.65;;
20443;SDS011;10381;53.730;10.010;2022-11-23T17:24:29;189.47;;;169.43;;
20443;SDS011;10381;53.730;10.010;2022-11-23T17:28:30;188.50;;;168.23;;
20443;SDS011;10381;53.730;10.010;2022-11-23T17:32:30;191.23;;;169.68;;
20443;SDS011;10381;53.730;10.010;2022-11-23T17:36:31;191.45;;;171.10;;
20443;SDS011;10381;53.730;10.010;2022-11-23T17:40:32;193.30;;;171.90;;
20443;SDS011;10381;53.730;10.010;2022-11-23T17:44:33;191.30;;;170.57;;
20443;SDS011;10381;53.730;10.010;2022-11-23T17:48:33;184.17;;;164.47;;
20443;SDS011;10381;53.730;10.010;2022-11-23T17:52:33;187.32;;;167.63;;
20443;SDS011;10381;53.730;10.010;2022-11-23T17:56:34;181.17;;;161.93;;
20443;SDS011;10381;53.730;10.010;2022-11-23T18:00:34;188.65;;;168.18;;
20443;SDS011;10381;53.730;10.010;2022-11-23T18:04:36;184.23;;;163.73;;
20443;SDS011;10381;53.730;10.010;2022-11-23T18:08:37;199.65;;;168.27;;
20443;SDS011;10381;53.730;10.010;2022-11-23T18:12:37;179.80;;;160.75;;
20443;SDS011;10381;53.730;10.010;2022-11-23T18:16:39;187.65;;;167.35;;
20443;SDS011;10381;53.730;10.010;2022-11-23T18:20:39;201.30;;;176.73;;
20443;SDS011;10381;53.730;10.010;2022-11-23T18:24:39;210.23;;;182.13;;
20443;SDS011;10381;53.730;10.010;2022-11-23T18:28:39;214.13;;;184.65;;
20443;SDS011;10381;53.730;10.010;2022-11-23T18:32:40;205.10;;;183.57;;
20443;SDS011;10381;53.730;10.010;2022-11-23T18:36:40;189.77;;;169.43;;
20443;SDS011;10381;53.730;10.010;2022-11-23T18:40:40;192.43;;;172.23;;
20443;SDS011;10381;53.730;10.010;2022-11-23T18:44:41;188.60;;;168.68;;
20443;SDS011;10381;53.730;10.010;2022-11-23T18:48:41;186.13;;;165.90;;
20443;SDS011;10381;53.730;10.010;2022-11-23T18:52:41;195.77;;;175.43;;
20443;SDS011;10381;53.730;10.010;2022-11-23T18:56:41;190.30;;;170.73;;
20443;SDS011;10381;53.730;10.010;2022-11-23T19:00:42;187.10;;;167.87;;
20443;SDS011;10381;53.730;10.010;2022-11-23T19:04:42;191.45;;;171.90;;
20443;SDS011;10381;53.730;10.010;2022-11-23T19:08:44;186.83;;;167.53;;
20443;SDS011;10381;53.730;10.010;2022-11-23T19:12:45;189.18;;;168.98;;
20443;SDS011;10381;53.730;10.010;2022-11-23T19:16:46;189.93;;;169.82;;
20443;SDS011;10381;53.730;10.010;2022-11-23T19:20:47;196.25;;;175.57;;
20443;SDS011;10381;53.730;10.010;2022-11-23T19:24:48;182.60;;;163.48;;
20443;SDS011;10381;53.730;10.010;2022-11-23T19:28:49;188.05;;;168.40;;
20443;SDS011;10381;53.730;10.010;2022-11-23T19:32:51;190.95;;;170.52;;
20443;SDS011;10381;53.730;10.010;2022-11-23T19:36:51;190.30;;;170.73;;
20443;SDS011;10381;53.730;10.010;2022-11-23T19:40:53;195.73;;;175.48;;
20443;SDS011;10381;53.730;10.010;2022-11-23T19:44:54;189.07;;;169.25;;
20443;SDS011;10381;53.730;10.010;2022-11-23T19:48:54;209.70;;;185.27;;
20443;SDS011;10381;53.730;10.010;2022-11-23T19:52:56;217.48;;;186.68;;
20443;SDS011;10381;53.730;10.010;2022-11-23T19:56:56;194.23;;;173.35;;
20443;SDS011;10381;53.730;10.010;2022-11-23T20:01:00;204.90;;;183.63;;
20443;SDS011;10381;53.730;10.010;2022-11-23T20:05:04;204.38;;;182.05;;
20443;SDS011;10381;53.730;10.010;2022-11-23T20:09:06;206.02;;;184.30;;
20443;SDS011;10381;53.730;10.010;2022-11-23T20:13:09;196.27;;;176.55;;
20443;SDS011;10381;53.730;10.010;2022-11-23T20:17:09;202.90;;;181.57;;
20443;SDS011;10381;53.730;10.010;2022-11-23T20:21:10;204.50;;;183.02;;
20443;SDS011;10381;53.730;10.010;2022-11-23T20:25:12;209.82;;;188.43;;
20443;SDS011;10381;53.730;10.010;2022-11-23T20:29:13;222.73;;;200.55;;
20443;SDS011;10381;53.730;10.010;2022-11-23T20:33:13;227.68;;;204.77;;
20443;SDS011;10381;53.730;10.010;2022-11-23T20:37:14;224.82;;;202.00;;
20443;SDS011;10381;53.730;10.010;2022-11-23T20:45:24;233.27;;;209.95;;
20443;SDS011;10381;53.730;10.010;2022-11-23T20:49:24;238.07;;;213.88;;
20443;SDS011;10381;53.730;10.010;2022-11-23T20:53:25;242.35;;;218.23;;
20443;SDS011;10381;53.730;10.010;2022-11-23T20:57:28;237.13;;;213.53;;
20443;SDS011;10381;53.730;10.010;2022-11-23T21:01:28;224.02;;;201.35;;
20443;SDS011;10381;53.730;10.010;2022-11-23T21:05:30;217.73;;;195.38;;
20443;SDS011;10381;53.730;10.010;2022-11-23T21:09:31;224.73;;;201.70;;
20443;SDS011;10381;53.730;10.010;2022-11-23T21:13:31;228.93;;;206.52;;
20443;SDS011;10381;53.730;10.010;2022-11-23T21:18:07;220.52;;;198.93;;
20443;SDS011;10381;53.730;10.010;2022-11-23T21:22:27;215.15;;;192.70;;
20443;SDS011;10381;53.730;10.010;2022-11-23T21:26:27;221.97;;;199.23;;
20443;SDS011;10381;53.730;10.010;2022-11-23T21:30:29;227.75;;;205.80;;
20443;SDS011;10381;53.730;10.010;2022-11-23T21:34:29;216.10;;;193.70;;
20443;SDS011;10381;53.730;10.010;2022-11-23T21:38:30;218.10;;;196.25;;
20443;SDS011;10381;53.730;10.010;2022-11-23T21:42:34;215.57;;;194.52;;
20443;SDS011;10381;53.730;10.010;2022-11-23T21:46:37;210.00;;;189.17;;
20443;SDS011;10381;53.730;10.010;2022-11-23T21:50:39;214.90;;;193.98;;
20443;SDS011;10381;53.730;10.010;2022-11-23T21:54:39;205.90;;;185.60;;
20443;SDS011;10381;53.730;10.010;2022-11-23T21:58:40;205.38;;;184.95;;
20443;SDS011;10381;53.730;10.010;2022-11-23T22:03:01;211.70;;;189.50;;
20443;SDS011;10381;53.730;10.010;2022-11-23T22:07:01;214.73;;;192.70;;
20443;SDS011;10381;53.730;10.010;2022-11-23T22:11:07;222.93;;;199.43;;
20443;SDS011;10381;53.730;10.010;2022-11-23T22:15:12;211.50;;;190.43;;
20443;SDS011;10381;53.730;10.010;2022-11-23T22:19:14;220.27;;;198.57;;
20443;SDS011;10381;53.730;10.010;2022-11-23T22:23:14;209.73;;;188.75;;
20443;SDS011;10381;53.730;10.010;2022-11-23T22:27:15;217.47;;;195.13;;
20443;SDS011;10381;53.730;10.010;2022-11-23T22:31:16;204.02;;;182.80;;
20443;SDS011;10381;53.730;10.010;2022-11-23T22:35:18;220.27;;;198.30;;
20443;SDS011;10381;53.730;10.010;2022-11-23T22:39:19;205.05;;;184.25;;
20443;SDS011;10381;53.730;10.010;2022-11-23T22:43:19;212.23;;;190.00;;
20443;SDS011;10381;53.730;10.010;2022-11-23T22:47:20;226.50;;;203.80;;
20443;SDS011;10381;53.730;10.010;2022-11-23T22:51:21;223.40;;;200.20;;
20443;SDS011;10381;53.730;10.010;2022-11-23T22:55:22;225.32;;;201.57;;
20443;SDS011;10381;53.730;10.010;2022-11-23T22:59:22;234.70;;;210.52;;
20443;SDS011;10381;53.730;10.010;2022-11-23T23:03:22;229.03;;;204.87;;
20443;SDS011;10381;53.730;10.010;2022-11-23T23:07:23;209.98;;;184.65;;
20443;SDS011;10381;53.730;10.010;2022-11-23T23:11:24;230.73;;;206.32;;
20443;SDS011;10381;53.730;10.010;2022-11-23T23:15:26;244.50;;;219.38;;
20443;SDS011;10381;53.730;10.010;2022-11-23T23:19:27;224.05;;;200.98;;
20443;SDS011;10381;53.730;10.010;2022-11-23T23:23:27;231.07;;;206.30;;
20443;SDS011;10381;53.730;10.010;2022-11-23T23:27:28;229.50;;;205.43;;
20443;SDS011;10381;53.730;10.010;2022-11-23T23:31:29;237.23;;;212.30;;
20443;SDS011;10381;53.730;10.010;2022-11-23T23:35:29;272.23;;;243.88;;
20443;SDS011;10381;53.730;10.010;2022-11-23T23:39:30;268.57;;;241.33;;
20443;SDS011;10381;53.730;10.010;2022-11-23T23:43:30;274.30;;;245.60;;
20443;SDS011;10381;53.730;10.010;2022-11-23T23:47:31;278.02;;;244.88;;
20443;SDS011;10381;53.730;10.010;2022-11-23T23:51:31;263.30;;;236.30;;
20443;SDS011;10381;53.730;10.010;2022-11-23T23:55:31;275.87;;;247.17;;
20443;SDS011;10381;53.730;10.010;2022-11-23T23:59:32;291.02;;;260.95;;
